Time;durP1;ratioP1;P1;durP2;ratioP2;P2;SDS_P1;SDS_P2;PMS_P1;PMS_P2;Temp;Humidity;BMP_temperature;BMP_pressure;BME280_temperature;BME280_humidity;BME280_pressure;Samples;Min_cycle;Max_cycle;Signal;HPM_P1;HPM_P2
2023/03/17 00:01:39;;;;;;;5.78;2.85;;;7.40;99.90;;;;;;5089082;28;20052;-81
2023/03/17 00:04:09;;;;;;;3.15;2.38;;;10.40;99.90;;;;;;5088776;28;20127;-81
2023/03/17 00:06:36;;;;;;;3.05;2.50;;;9.30;99.90;;;;;;5089482;28;20051;-82
2023/03/17 00:09:02;;;;;;;2.47;2.28;;;7.40;99.90;;;;;;5107375;28;21291;-81
2023/03/17 00:11:28;;;;;;;2.72;2.28;;;7.50;99.90;;;;;;5072211;28;20418;-81
2023/03/17 00:13:54;;;;;;;3.10;2.35;;;10.00;99.90;;;;;;5088320;28;20055;-82
2023/03/17 00:16:24;;;;;;;3.40;2.20;;;7.50;99.90;;;;;;5071643;28;20036;-82
2023/03/17 00:18:50;;;;;;;4.32;2.30;;;10.10;99.90;;;;;;5087622;28;20402;-82
2023/03/17 00:21:29;;;;;;;3.17;2.50;;;9.30;99.90;;;;;;5071471;28;20123;-83
2023/03/17 00:23:56;;;;;;;3.17;2.08;;;7.50;99.90;;;;;;5089138;28;20044;-82
2023/03/17 00:26:23;;;;;;;5.57;2.28;;;10.20;99.90;;;;;;5088809;28;20404;-81
2023/03/17 00:28:49;;;;;;;4.72;2.20;;;10.60;99.90;;;;;;5088310;28;20555;-81
2023/03/17 00:31:23;;;;;;;4.38;2.38;;;10.90;99.90;;;;;;5071868;28;20071;-80
2023/03/17 00:33:51;;;;;;;2.40;2.20;;;9.00;99.90;;;;;;5104506;28;20113;-81
2023/03/17 00:36:23;;;;;;;4.68;2.05;;;8.20;99.90;;;;;;5088350;28;20624;-82
2023/03/17 00:38:49;;;;;;;4.55;2.65;;;9.50;99.90;;;;;;5089389;28;20042;-81
2023/03/17 00:41:16;;;;;;;2.47;2.13;;;7.40;99.90;;;;;;5072298;28;20051;-81
2023/03/17 00:43:42;;;;;;;3.35;2.53;;;8.40;99.90;;;;;;5106520;28;20043;-81
2023/03/17 00:46:40;;;;;;;2.72;1.88;;;7.20;99.90;;;;;;5088162;28;20548;-82
2023/03/17 00:49:16;;;;;;;3.30;2.10;;;7.50;99.90;;;;;;5085806;28;20265;-82
2023/03/17 00:51:43;;;;;;;2.95;2.17;;;7.40;99.90;;;;;;5088286;28;20100;-82
2023/03/17 00:54:10;;;;;;;4.15;2.33;;;10.80;99.90;;;;;;5088088;28;20135;-82
2023/03/17 00:56:38;;;;;;;3.25;2.42;;;7.40;99.90;;;;;;5088878;28;20044;-82
2023/03/17 00:59:13;;;;;;;3.55;2.25;;;7.40;99.90;;;;;;5054705;28;20075;-80
2023/03/17 01:01:39;;;;;;;4.22;2.40;;;5.20;99.90;;;;;;5072641;28;20039;-81
2023/03/17 01:04:07;;;;;;;6.72;2.33;;;7.20;99.90;;;;;;5087576;28;20489;-81
2023/03/17 01:06:33;;;;;;;4.82;3.08;;;7.40;99.90;;;;;;5072258;28;20463;-81
2023/03/17 01:08:58;;;;;;;4.03;2.35;;;10.80;99.90;;;;;;5106527;28;20062;-80
2023/03/17 01:11:25;;;;;;;3.28;2.35;;;7.40;99.90;;;;;;5088484;28;20132;-81
2023/03/17 01:13:51;;;;;;;3.45;2.30;;;11.30;99.90;;;;;;5092295;28;20505;-80
2023/03/17 01:16:17;;;;;;;4.30;2.60;;;7.50;99.90;;;;;;5074299;28;20039;-80
2023/03/17 01:18:44;;;;;;;6.07;2.72;;;;;;;;;;5075362;28;20364;-81
2023/03/17 01:21:10;;;;;;;4.40;2.35;;;7.40;99.90;;;;;;5075060;28;20127;-82
2023/03/17 01:23:36;;;;;;;3.33;2.13;;;7.70;99.90;;;;;;5091682;28;20123;-83
2023/03/17 01:26:02;;;;;;;4.78;1.95;;;7.40;99.90;;;;;;5074584;28;20040;-84
2023/03/17 01:28:27;;;;;;;2.83;2.33;;;7.40;99.90;;;;;;5091908;28;20039;-81
2023/03/17 01:30:53;;;;;;;4.60;2.33;;;7.40;99.90;;;;;;5110043;27;20097;-81
2023/03/17 01:33:19;;;;;;;4.90;2.38;;;7.20;99.90;;;;;;5092044;28;20103;-81
2023/03/17 01:35:49;;;;;;;5.28;2.17;;;5.10;99.90;;;;;;5110100;28;20094;-80
2023/03/17 01:38:14;;;;;;;2.88;2.22;;;7.80;99.90;;;;;;5091159;28;20051;-80
2023/03/17 01:40:49;;;;;;;4.47;2.65;;;8.80;99.90;;;;;;5075125;28;20044;-82
2023/03/17 01:43:28;;;;;;;4.95;2.10;;;7.50;99.90;;;;;;5109044;28;20051;-80
2023/03/17 01:46:21;;;;;;;5.22;2.47;;;7.40;99.90;;;;;;5090218;28;20043;-82
2023/03/17 01:49:05;;;;;;;2.60;2.08;;;7.40;99.90;;;;;;5092071;28;20063;-81
2023/03/17 01:51:53;;;;;;;6.38;2.58;;;7.40;99.90;;;;;;5074345;28;20040;-82
2023/03/17 01:54:28;;;;;;;3.40;1.95;;;7.40;99.90;;;;;;5074124;28;20039;-81
2023/03/17 01:56:59;;;;;;;4.25;2.20;;;7.70;99.90;;;;;;5090730;28;20044;-82
2023/03/17 01:59:33;;;;;;;5.00;2.65;;;7.50;99.90;;;;;;5090173;28;20044;-81
2023/03/17 02:02:07;;;;;;;4.57;2.53;;;10.60;99.90;;;;;;5076338;28;20046;-81
2023/03/17 02:04:34;;;;;;;3.40;2.40;;;7.30;99.90;;;;;;5087847;28;20554;-81
2023/03/17 02:07:01;;;;;;;1.67;1.58;;;10.50;99.90;;;;;;5073862;28;20043;-80
2023/03/17 02:09:27;;;;;;;3.67;2.38;;;10.50;99.90;;;;;;5109469;28;20503;-81
2023/03/17 02:11:54;;;;;;;3.75;2.22;;;7.30;99.90;;;;;;5091571;28;20114;-80
2023/03/17 02:14:20;;;;;;;7.07;2.40;;;7.50;99.90;;;;;;5090035;28;20057;-80
2023/03/17 02:16:47;;;;;;;3.03;2.70;;;7.40;99.90;;;;;;5074389;28;20043;-80
2023/03/17 02:19:12;;;;;;;3.67;2.58;;;10.40;99.90;;;;;;5090744;28;20043;-82
2023/03/17 02:21:56;;;;;;;2.92;2.22;;;7.40;99.90;;;;;;5077723;27;20565;-81
2023/03/17 02:24:32;;;;;;;3.20;2.40;;;7.50;99.90;;;;;;5090628;28;20109;-83
2023/03/17 02:27:04;;;;;;;4.50;2.33;;;7.50;99.90;;;;;;5108713;28;20050;-81
2023/03/17 02:29:33;;;;;;;4.18;2.17;;;7.40;99.90;;;;;;5073287;28;20047;-82
2023/03/17 02:32:00;;;;;;;3.13;2.22;;;7.50;99.90;;;;;;5108816;28;20070;-81
2023/03/17 02:34:25;;;;;;;5.82;2.33;;;10.50;99.90;;;;;;5088767;28;20071;-80
2023/03/17 02:36:51;;;;;;;6.30;3.03;;;7.40;99.90;;;;;;5090925;28;20070;-81
2023/03/17 02:39:17;;;;;;;3.22;2.40;;;7.40;99.90;;;;;;5092454;28;20054;-82
2023/03/17 02:41:43;;;;;;;3.97;2.42;;;;;;;;;;5073085;28;20035;-82
2023/03/17 02:44:09;;;;;;;3.65;2.80;;;7.20;99.90;;;;;;5089992;28;20142;-81
2023/03/17 02:46:35;;;;;;;3.67;2.42;;;7.20;99.90;;;;;;5071542;28;20036;-80
2023/03/17 02:49:02;;;;;;;3.85;2.53;;;9.10;99.90;;;;;;5072977;28;20100;-81
2023/03/17 02:51:28;;;;;;;3.30;2.08;;;;;;;;;;5072593;28;20475;-82
2023/03/17 02:53:54;;;;;;;2.45;2.10;;;7.20;99.90;;;;;;5108410;28;20036;-82
2023/03/17 02:56:20;;;;;;;4.97;2.20;;;;;;;;;;5075082;28;20059;-81
2023/03/17 02:58:46;;;;;;;5.88;2.50;;;7.20;99.90;;;;;;5090453;28;20035;-81
2023/03/17 03:01:12;;;;;;;3.08;2.78;;;7.30;99.90;;;;;;5089904;28;20027;-81
2023/03/17 03:03:38;;;;;;;2.28;2.08;;;7.20;99.90;;;;;;5056013;28;20044;-82
2023/03/17 03:06:05;;;;;;;8.65;2.53;;;4.20;99.90;;;;;;5089693;28;20036;-80
2023/03/17 03:08:31;;;;;;;3.38;2.63;;;7.30;99.90;;;;;;5088594;28;20505;-80
2023/03/17 03:10:56;;;;;;;4.95;2.50;;;6.90;99.90;;;;;;5108371;28;20043;-81
2023/03/17 03:13:22;;;;;;;3.92;2.30;;;9.00;99.90;;;;;;5077386;28;20040;-82
2023/03/17 03:15:48;;;;;;;5.15;2.58;;;7.00;99.90;;;;;;5089955;28;20039;-80
2023/03/17 03:18:14;;;;;;;5.35;2.22;;;8.80;99.90;;;;;;5090854;28;20043;-83
2023/03/17 03:20:43;;;;;;;3.20;2.70;;;10.60;99.90;;;;;;5074410;28;20047;-84
2023/03/17 03:23:10;;;;;;;3.28;2.20;;;;;;;;;;5108031;28;20104;-83
2023/03/17 03:25:36;;;;;;;6.03;2.72;;;7.30;99.90;;;;;;5073735;28;20094;-82
2023/03/17 03:28:06;;;;;;;4.65;2.60;;;7.30;99.90;;;;;;5090897;28;20483;-83
2023/03/17 03:30:33;;;;;;;3.17;2.25;;;7.40;99.90;;;;;;5073550;28;20043;-84
2023/03/17 03:32:59;;;;;;;3.70;2.35;;;7.20;99.90;;;;;;5109104;28;20089;-80
2023/03/17 03:35:25;;;;;;;2.67;2.45;;;8.20;99.90;;;;;;5089950;28;20088;-81
2023/03/17 03:37:51;;;;;;;4.13;2.70;;;7.30;99.90;;;;;;5090738;28;20054;-82
2023/03/17 03:40:16;;;;;;;5.07;2.88;;;10.70;99.90;;;;;;5090346;28;20521;-82
2023/03/17 03:42:42;;;;;;;4.00;2.58;;;7.20;99.90;;;;;;5091146;28;20047;-83
2023/03/17 03:45:08;;;;;;;2.97;2.47;;;7.10;99.90;;;;;;5072662;28;20036;-82
2023/03/17 03:47:34;;;;;;;3.20;2.38;;;;;;;;;;5077339;28;20170;-83
2023/03/17 03:50:01;;;;;;;7.07;3.40;;;;;;;;;;5090641;28;20032;-83
2023/03/17 03:52:26;;;;;;;3.80;2.13;;;7.20;99.90;;;;;;5089792;28;20074;-82
2023/03/17 03:54:52;;;;;;;3.85;2.20;;;7.20;99.90;;;;;;5073639;28;20727;-81
2023/03/17 03:57:18;;;;;;;2.90;2.35;;;7.30;99.90;;;;;;5090643;28;20063;-82
2023/03/17 03:59:44;;;;;;;4.97;2.90;;;4.50;99.90;;;;;;5075143;28;20048;-82
2023/03/17 04:02:10;;;;;;;5.30;2.85;;;6.40;99.90;;;;;;5090647;28;20042;-81
2023/03/17 04:04:36;;;;;;;3.28;2.35;;;7.20;99.90;;;;;;5090597;28;20093;-82
2023/03/17 04:07:01;;;;;;;3.33;2.15;;;7.20;99.90;;;;;;5089966;28;20047;-82
2023/03/17 04:09:27;;;;;;;3.85;2.50;;;7.30;99.90;;;;;;5073591;28;20108;-85
2023/03/17 04:11:53;;;;;;;3.55;2.63;;;;;;;;;;5072871;28;20043;-84
2023/03/17 04:14:19;;;;;;;2.95;2.53;;;7.20;99.90;;;;;;5072892;28;20049;-80
2023/03/17 04:16:45;;;;;;;4.65;2.17;;;6.80;99.90;;;;;;5099189;28;20039;-81
2023/03/17 04:19:11;;;;;;;4.47;2.72;;;8.60;99.90;;;;;;5071139;28;20071;-84
2023/03/17 04:21:37;;;;;;;4.40;2.25;;;10.40;99.90;;;;;;5090106;28;20051;-82
2023/03/17 04:24:04;;;;;;;5.50;2.72;;;7.20;99.90;;;;;;5071436;28;20455;-83
2023/03/17 04:26:31;;;;;;;3.83;2.33;;;7.40;99.90;;;;;;5072188;28;20071;-81
2023/03/17 04:28:57;;;;;;;3.70;2.42;;;10.70;99.90;;;;;;5107949;28;20035;-83
2023/03/17 04:31:23;;;;;;;4.55;2.28;;;7.20;99.90;;;;;;5073313;28;20510;-83
2023/03/17 04:33:49;;;;;;;5.38;2.70;;;8.30;99.90;;;;;;5072641;28;20044;-81
2023/03/17 04:36:20;;;;;;;4.18;2.35;;;10.60;99.90;;;;;;5073374;28;20044;-82
2023/03/17 04:38:46;;;;;;;4.57;2.60;;;7.20;99.90;;;;;;5075449;28;20513;-81
2023/03/17 04:41:12;;;;;;;2.88;2.17;;;7.70;99.90;;;;;;5089309;28;20032;-81
2023/03/17 04:43:40;;;;;;;4.35;2.80;;;8.80;99.90;;;;;;5073089;28;20460;-81
2023/03/17 04:46:07;;;;;;;3.92;2.70;;;7.20;99.90;;;;;;5072780;28;20039;-82
2023/03/17 04:48:34;;;;;;;4.68;2.67;;;7.10;99.90;;;;;;5075853;28;20067;-82
2023/03/17 04:50:59;;;;;;;4.75;2.35;;;10.20;99.90;;;;;;5111962;28;20410;-82
2023/03/17 04:53:26;;;;;;;3.20;2.40;;;7.10;99.90;;;;;;5096119;27;20043;-86
2023/03/17 04:55:51;;;;;;;5.05;2.97;;;10.20;99.90;;;;;;5094276;28;20051;-84
2023/03/17 04:58:17;;;;;;;4.97;2.58;;;7.00;99.90;;;;;;5076591;28;20032;-83
2023/03/17 05:00:43;;;;;;;3.42;2.38;;;;;;;;;;5077582;28;20417;-83
2023/03/17 05:03:09;;;;;;;6.47;3.03;;;7.00;99.90;;;;;;5092792;28;20384;-81
2023/03/17 05:05:36;;;;;;;3.47;2.78;;;9.60;99.90;;;;;;5093372;28;20129;-81
2023/03/17 05:08:02;;;;;;;3.45;2.47;;;;;;;;;;5084750;28;20504;-81
2023/03/17 05:10:28;;;;;;;4.78;2.55;;;8.20;99.90;;;;;;5079135;27;20058;-80
2023/03/17 05:12:57;;;;;;;3.13;2.40;;;6.70;99.90;;;;;;5094374;28;20491;-81
2023/03/17 05:15:22;;;;;;;4.03;2.60;;;9.30;99.90;;;;;;5075734;28;20097;-81
2023/03/17 05:17:48;;;;;;;6.07;2.70;;;9.10;99.90;;;;;;5112084;28;20043;-81
2023/03/17 05:20:14;;;;;;;4.65;2.63;;;8.30;99.90;;;;;;5111173;28;20181;-81
2023/03/17 05:22:40;;;;;;;2.85;2.38;;;7.50;99.90;;;;;;5075832;28;20033;-80
2023/03/17 05:25:07;;;;;;;4.97;2.65;;;6.90;99.90;;;;;;5075617;28;20043;-80
2023/03/17 05:27:33;;;;;;;4.70;2.60;;;4.50;99.90;;;;;;5074629;28;20039;-80
2023/03/17 05:29:58;;;;;;;2.38;2.05;;;9.90;99.90;;;;;;5107824;28;20054;-82
2023/03/17 05:32:24;;;;;;;5.90;2.67;;;10.10;99.90;;;;;;5046266;28;20040;-81
2023/03/17 05:34:50;;;;;;;4.18;2.55;;;10.10;99.90;;;;;;5092492;28;20054;-81
2023/03/17 05:37:16;;;;;;;3.55;2.45;;;6.70;99.90;;;;;;5073665;28;20105;-80
2023/03/17 05:39:42;;;;;;;3.40;2.50;;;8.40;99.90;;;;;;5111995;28;20486;-81
2023/03/17 05:42:08;;;;;;;5.97;2.50;;;7.80;99.90;;;;;;5092841;28;20051;-83
2023/03/17 05:44:34;;;;;;;5.47;2.60;;;7.00;99.90;;;;;;5075582;27;20039;-81
2023/03/17 05:47:00;;;;;;;3.33;2.50;;;7.00;99.90;;;;;;5095259;28;20042;-81
2023/03/17 05:49:27;;;;;;;3.90;2.67;;;7.50;99.90;;;;;;5075771;28;20051;-82
2023/03/17 05:51:54;;;;;;;4.57;2.40;;;7.00;99.90;;;;;;5092322;28;20038;-79
2023/03/17 05:54:20;;;;;;;6.45;3.03;;;4.90;99.90;;;;;;5092611;28;20135;-81
2023/03/17 05:56:46;;;;;;;5.63;2.30;;;7.00;99.90;;;;;;5092941;28;20043;-81
2023/03/17 05:59:14;;;;;;;3.42;2.55;;;7.30;99.90;;;;;;5090981;28;20043;-80
2023/03/17 06:01:40;;;;;;;2.92;2.22;;;6.90;99.90;;;;;;5079898;27;20039;-81
2023/03/17 06:04:06;;;;;;;5.80;2.50;;;7.00;99.90;;;;;;5074769;28;20677;-80
2023/03/17 06:06:32;;;;;;;4.68;2.83;;;10.40;99.90;;;;;;5110328;28;20040;-80
2023/03/17 06:08:58;;;;;;;4.03;2.47;;;4.10;99.90;;;;;;5075474;28;20122;-84
2023/03/17 06:11:25;;;;;;;6.30;2.83;;;9.50;99.90;;;;;;5074720;28;20165;-81
2023/03/17 06:13:51;;;;;;;4.10;2.60;;;8.70;99.90;;;;;;5075055;28;20493;-80
2023/03/17 06:16:17;;;;;;;2.90;2.50;;;9.40;99.90;;;;;;5091707;28;20040;-80
2023/03/17 06:18:44;;;;;;;5.75;2.92;;;7.10;99.90;;;;;;5079312;27;20037;-81
2023/03/17 06:21:10;;;;;;;4.32;2.15;;;;;;;;;;5091999;28;20096;-80
2023/03/17 06:23:36;;;;;;;2.65;2.03;;;7.00;99.90;;;;;;5092541;28;20066;-81
2023/03/17 06:26:02;;;;;;;4.90;2.50;;;4.60;99.90;;;;;;5109211;28;20372;-81
2023/03/17 06:28:28;;;;;;;4.95;2.88;;;7.40;99.90;;;;;;5092218;28;20117;-83
2023/03/17 06:30:53;;;;;;;4.70;2.80;;;8.50;99.90;;;;;;5074478;28;20682;-80
2023/03/17 06:33:19;;;;;;;4.90;2.13;;;10.10;99.90;;;;;;5074082;28;20051;-81
2023/03/17 06:35:45;;;;;;;4.65;2.95;;;7.50;99.90;;;;;;5113475;27;20039;-81
2023/03/17 06:38:12;;;;;;;4.32;2.70;;;9.80;99.90;;;;;;5091646;28;20027;-80
2023/03/17 06:40:38;;;;;;;6.25;2.65;;;9.50;99.90;;;;;;5109788;28;20153;-81
2023/03/17 06:43:03;;;;;;;5.22;2.50;;;7.10;99.90;;;;;;5066177;28;20491;-80
2023/03/17 06:45:31;;;;;;;2.55;2.15;;;7.40;99.90;;;;;;5091407;28;20044;-80
2023/03/17 06:47:57;;;;;;;5.10;2.25;;;9.10;99.90;;;;;;5091163;28;20487;-81
2023/03/17 06:50:24;;;;;;;4.03;2.83;;;7.00;99.90;;;;;;5074789;28;20058;-82
2023/03/17 06:52:50;;;;;;;4.15;2.90;;;7.10;99.90;;;;;;5075162;28;20047;-83
2023/03/17 06:55:16;;;;;;;4.55;2.47;;;7.40;99.90;;;;;;5090279;28;20059;-81
2023/03/17 06:57:42;;;;;;;3.17;2.80;;;7.10;99.90;;;;;;5074692;28;20047;-83
2023/03/17 07:00:12;;;;;;;2.88;2.33;;;8.30;99.90;;;;;;5074237;28;20039;-82
2023/03/17 07:02:39;;;;;;;5.47;2.47;;;;;;;;;;5093973;28;20036;-84
2023/03/17 07:05:05;;;;;;;5.28;4.50;;;7.10;99.90;;;;;;5108664;28;20032;-82
2023/03/17 07:07:31;;;;;;;5.40;2.85;;;7.20;99.90;;;;;;5074623;28;20104;-84
2023/03/17 07:09:57;;;;;;;2.50;2.33;;;9.70;99.90;;;;;;5111964;27;20429;-82
2023/03/17 07:12:22;;;;;;;4.55;2.70;;;7.40;99.90;;;;;;5091166;28;20135;-87
2023/03/17 07:14:49;;;;;;;4.85;2.40;;;7.30;99.90;;;;;;5090540;28;20096;-79
2023/03/17 07:17:14;;;;;;;6.03;3.20;;;11.00;99.90;;;;;;5091049;28;20087;-81
2023/03/17 07:19:41;;;;;;;4.15;2.17;;;7.20;99.90;;;;;;5091507;28;20538;-81
2023/03/17 07:22:08;;;;;;;4.30;2.88;;;10.20;99.90;;;;;;5073113;28;20023;-81
2023/03/17 07:24:34;;;;;;;3.35;2.55;;;7.40;99.90;;;;;;5090906;28;20083;-81
2023/03/17 07:27:00;;;;;;;6.10;2.55;;;9.30;99.90;;;;;;5068191;28;20666;-80
2023/03/17 07:29:26;;;;;;;4.47;2.83;;;7.50;99.90;;;;;;5089460;28;20051;-83
2023/03/17 07:31:52;;;;;;;4.65;2.58;;;10.40;99.90;;;;;;5091218;28;20558;-83
2023/03/17 07:34:18;;;;;;;3.03;2.53;;;8.80;99.90;;;;;;5088330;28;20047;-80
2023/03/17 07:36:43;;;;;;;2.92;2.55;;;7.60;99.90;;;;;;4383863;28;10000679;-80
2023/03/17 07:39:09;;;;;;;5.03;2.35;;;8.20;99.90;;;;;;5105543;28;20538;-81
2023/03/17 07:41:36;;;;;;;3.15;2.45;;;;;;;;;;5092646;28;20483;-80
2023/03/17 07:44:02;;;;;;;9.18;3.25;;;7.60;99.90;;;;;;5070854;28;20130;-80
2023/03/17 07:46:28;;;;;;;5.07;2.55;;;7.80;99.90;;;;;;5086098;28;20035;-80
2023/03/17 07:48:54;;;;;;;5.18;3.00;;;7.80;99.90;;;;;;5088744;28;20043;-80
2023/03/17 07:51:21;;;;;;;6.35;3.05;;;10.80;99.90;;;;;;5067711;28;20368;-81
2023/03/17 07:53:48;;;;;;;5.03;2.85;;;10.90;99.90;;;;;;5072592;28;20032;-81
2023/03/17 07:56:16;;;;;;;2.38;2.13;;;9.80;99.90;;;;;;5088435;28;20055;-81
2023/03/17 07:58:42;;;;;;;8.00;3.10;;;;;;;;;;5073324;28;20058;-81
2023/03/17 08:01:08;;;;;;;4.60;2.95;;;8.00;99.90;;;;;;5070971;28;20500;-80
2023/03/17 08:03:35;;;;;;;6.35;2.80;;;11.00;99.90;;;;;;5070051;28;20126;-80
2023/03/17 08:06:02;;;;;;;5.97;2.65;;;8.10;99.90;;;;;;5106273;28;20075;-79
2023/03/17 08:08:28;;;;;;;2.75;2.42;;;8.30;99.90;;;;;;5090596;28;20046;-80
2023/03/17 08:11:02;;;;;;;3.47;2.67;;;9.70;99.90;;;;;;5086980;28;20040;-79
2023/03/17 08:13:28;;;;;;;3.05;2.53;;;8.40;99.90;;;;;;5085210;28;20040;-79
2023/03/17 08:15:54;;;;;;;3.20;2.47;;;8.20;99.90;;;;;;5083670;28;20044;-79
2023/03/17 08:18:20;;;;;;;5.85;3.05;;;10.50;99.90;;;;;;5104123;28;20058;-85
2023/03/17 08:20:46;;;;;;;4.40;2.10;;;8.40;99.90;;;;;;5106761;28;20394;-79
2023/03/17 08:23:13;;;;;;;3.97;2.45;;;10.20;99.90;;;;;;5093263;28;20128;-80
2023/03/17 08:25:39;;;;;;;4.53;2.90;;;8.10;99.90;;;;;;5094429;28;20051;-80
2023/03/17 08:28:04;;;;;;;3.08;2.30;;;10.80;99.90;;;;;;5093403;28;20038;-79
2023/03/17 08:30:30;;;;;;;5.10;2.83;;;11.20;99.90;;;;;;5109797;28;20051;-81
2023/03/17 08:32:57;;;;;;;7.50;2.72;;;;;;;;;;5077599;28;20036;-81
2023/03/17 08:35:23;;;;;;;4.05;2.83;;;8.50;99.90;;;;;;5077113;28;20650;-80
2023/03/17 08:37:49;;;;;;;5.45;3.20;;;9.20;99.90;;;;;;5077170;28;20065;-81
2023/03/17 08:40:17;;;;;;;4.07;2.85;;;8.60;99.90;;;;;;5093859;28;20418;-80
2023/03/17 08:42:50;;;;;;;6.32;2.92;;;8.60;99.90;;;;;;5077645;28;20047;-81
2023/03/17 08:45:17;;;;;;;4.45;2.47;;;8.70;99.90;;;;;;5075834;28;20058;-81
2023/03/17 08:47:43;;;;;;;3.70;2.45;;;8.60;99.90;;;;;;5077357;28;20074;-80
2023/03/17 08:50:15;;;;;;;3.38;2.70;;;9.80;99.90;;;;;;5093834;28;20050;-79
2023/03/17 08:52:41;;;;;;;6.40;2.67;;;8.90;99.90;;;;;;5076852;28;20036;-81
2023/03/17 08:55:07;;;;;;;5.00;3.10;;;11.40;99.90;;;;;;5093536;28;20043;-79
2023/03/17 08:57:34;;;;;;;4.03;2.50;;;8.80;99.90;;;;;;5112365;28;20482;-79
2023/03/17 09:00:00;;;;;;;3.00;2.67;;;8.80;99.90;;;;;;5111251;28;20054;-79
2023/03/17 09:02:27;;;;;;;5.15;2.50;;;8.90;99.90;;;;;;5112206;28;20438;-78
2023/03/17 09:04:53;;;;;;;4.13;2.67;;;12.00;99.90;;;;;;5076428;28;20047;-79
2023/03/17 09:07:19;;;;;;;3.60;2.67;;;11.80;99.90;;;;;;5111343;28;20035;-79
2023/03/17 09:09:45;;;;;;;4.13;2.28;;;7.70;99.90;;;;;;5093739;28;20036;-80
2023/03/17 09:12:11;;;;;;;4.88;2.78;;;11.70;99.90;;;;;;5076289;28;20047;-80
2023/03/17 09:14:38;;;;;;;6.10;2.30;;;9.30;99.90;;;;;;5075753;28;20054;-79
2023/03/17 09:17:04;;;;;;;4.13;2.47;;;9.50;99.90;;;;;;5093307;28;20484;-79
2023/03/17 09:19:29;;;;;;;5.13;2.22;;;9.60;99.90;;;;;;5111673;28;20050;-82
2023/03/17 09:21:56;;;;;;;4.70;2.33;;;9.60;99.90;;;;;;5076731;28;20051;-80
2023/03/17 09:24:22;;;;;;;6.82;2.58;;;9.70;99.90;;;;;;5093051;28;20040;-81
2023/03/17 09:26:47;;;;;;;3.53;2.53;;;9.60;99.90;;;;;;5076006;28;20127;-80
2023/03/17 09:29:14;;;;;;;5.20;2.38;;;9.70;99.90;;;;;;5111024;28;20090;-83
2023/03/17 09:31:41;;;;;;;2.85;2.58;;;12.20;99.90;;;;;;5076852;28;20495;-80
2023/03/17 09:34:07;;;;;;;5.00;2.38;;;11.40;99.90;;;;;;5109292;28;20035;-80
2023/03/17 09:36:33;;;;;;;2.58;2.25;;;10.00;99.90;;;;;;5093253;28;20043;-82
2023/03/17 09:38:59;;;;;;;3.25;2.28;;;12.70;99.90;;;;;;5075962;28;20047;-81
2023/03/17 09:41:50;;;;;;;5.68;2.90;;;12.70;99.90;;;;;;5110460;28;20083;-78
2023/03/17 09:44:25;;;;;;;6.80;2.63;;;10.10;99.90;;;;;;5068414;28;20096;-80
2023/03/17 09:47:04;;;;;;;5.50;2.70;;;10.20;99.90;;;;;;5093180;28;20050;-79
2023/03/17 09:49:43;;;;;;;7.00;3.20;;;10.30;99.90;;;;;;5092264;28;20058;-79
2023/03/17 09:52:20;;;;;;;3.97;2.22;;;11.10;99.90;;;;;;5067580;28;20130;-84
2023/03/17 09:54:48;;;;;;;7.60;3.10;;;12.40;99.90;;;;;;5091799;28;20047;-80
2023/03/17 09:57:21;;;;;;;3.80;2.70;;;10.50;99.90;;;;;;5092652;28;20039;-81
2023/03/17 10:00:14;;;;;;;3.10;2.58;;;11.30;99.90;;;;;;5111127;28;20058;-80
2023/03/17 10:02:40;;;;;;;4.35;2.38;;;10.70;99.90;;;;;;5091465;28;20126;-81
2023/03/17 10:05:25;;;;;;;4.28;2.83;;;11.00;99.90;;;;;;5074706;28;20042;-80
2023/03/17 10:07:57;;;;;;;2.90;2.28;;;10.90;99.90;;;;;;5111098;28;20083;-80
2023/03/17 10:10:33;;;;;;;4.18;2.88;;;11.00;99.90;;;;;;5091559;28;20052;-79
2023/03/17 10:13:39;;;;;;;5.97;2.85;;;11.00;99.90;;;;;;5075423;28;20426;-80
2023/03/17 10:16:18;;;;;;;4.63;2.15;;;11.10;99.90;;;;;;5074462;28;20180;-79
2023/03/17 10:18:57;;;;;;;3.47;2.90;;;11.30;99.90;;;;;;5092191;28;20044;-79
2023/03/17 10:21:33;;;;;;;4.32;2.60;;;12.20;99.90;;;;;;5110466;28;20043;-79
2023/03/17 10:24:00;;;;;;;5.53;2.72;;;11.60;99.90;;;;;;5074249;28;20075;-81
2023/03/17 10:26:39;;;;;;;3.33;2.42;;;13.50;99.90;;;;;;5075619;28;20039;-82
2023/03/17 10:29:15;;;;;;;4.43;2.80;;;11.80;99.90;;;;;;5091365;28;20509;-80
2023/03/17 10:31:41;;;;;;;4.38;2.55;;;11.90;99.90;;;;;;5074706;28;20483;-79
2023/03/17 10:34:20;;;;;;;3.83;2.55;;;12.00;99.90;;;;;;5074402;28;20044;-79
2023/03/17 10:36:54;;;;;;;4.15;2.72;;;12.20;99.90;;;;;;5091565;28;20479;-79
2023/03/17 10:39:22;;;;;;;4.13;2.40;;;12.30;99.90;;;;;;5110410;28;20035;-80
2023/03/17 10:42:06;;;;;;;5.63;3.05;;;12.40;99.90;;;;;;5075148;28;20285;-80
2023/03/17 10:44:49;;;;;;;6.82;3.10;;;12.50;99.90;;;;;;5109299;28;20134;-79
2023/03/17 10:47:48;;;;;;;3.30;2.53;;;13.50;99.90;;;;;;5067110;28;20052;-80
2023/03/17 10:50:35;;;;;;;3.92;2.70;;;12.70;99.90;;;;;;5079827;28;20059;-79
2023/03/17 10:53:03;;;;;;;3.60;2.72;;;13.20;99.90;;;;;;5090750;28;20054;-81
2023/03/17 10:55:34;;;;;;;3.60;2.63;;;12.90;99.90;;;;;;5109596;28;20092;-79
2023/03/17 10:58:14;;;;;;;6.60;3.22;;;13.00;99.90;;;;;;5090701;28;20479;-79
2023/03/17 11:00:59;;;;;;;7.07;3.03;;;13.10;99.90;;;;;;5091693;28;20054;-79
2023/03/17 11:03:26;;;;;;;;;;;13.30;99.90;;;;;;5068169;28;20061;-78
2023/03/17 11:06:04;;;;;;;4.28;3.25;;;13.50;99.90;;;;;;5073638;28;19972;-79
2023/03/17 11:08:34;;;;;;;4.57;2.65;;;13.60;99.90;;;;;;5075287;28;20040;-80
2023/03/17 11:11:05;;;;;;;7.20;3.63;;;14.80;99.90;;;;;;5074433;28;20058;-82
2023/03/17 11:13:31;;;;;;;5.40;3.55;;;13.80;99.90;;;;;;5073794;28;20097;-83
2023/03/17 11:16:22;;;;;;;5.05;2.80;;;16.00;99.90;;;;;;5109310;28;20120;-81
2023/03/17 11:18:52;;;;;;;5.50;3.45;;;13.80;99.90;;;;;;5074517;28;20105;-82
2023/03/17 11:21:25;;;;;;;4.13;3.13;;;15.70;99.90;;;;;;5090227;28;20494;-81
2023/03/17 11:24:12;;;;;;;6.20;3.17;;;13.90;99.90;;;;;;5109123;28;20122;-80
2023/03/17 11:26:44;;;;;;;7.18;4.03;;;14.00;99.90;;;;;;5090442;28;20053;-79
2023/03/17 11:29:21;;;;;;;6.60;3.28;;;12.30;99.90;;;;;;5073918;28;20050;-81
2023/03/17 11:32:21;;;;;;;5.32;3.65;;;14.20;99.90;;;;;;5074458;28;20139;-79
2023/03/17 11:35:02;;;;;;;4.03;3.13;;;14.20;99.90;;;;;;5090151;28;20039;-79
2023/03/17 11:37:49;;;;;;;6.28;3.53;;;14.30;99.90;;;;;;5090941;28;20084;-80
2023/03/17 11:40:28;;;;;;;5.28;3.60;;;12.60;99.90;;;;;;5082087;28;20051;-79
2023/03/17 11:43:29;;;;;;;5.32;3.70;;;14.40;99.90;;;;;;5073427;28;20032;-81
2023/03/17 11:46:07;;;;;;;6.05;3.83;;;14.50;99.90;;;;;;5073551;28;20047;-80
2023/03/17 11:49:09;;;;;;;5.95;4.32;;;14.60;99.90;;;;;;5073460;28;20047;-79
2023/03/17 11:51:49;;;;;;;5.80;3.90;;;14.70;99.90;;;;;;5085803;28;20039;-80
2023/03/17 11:54:32;;;;;;;8.18;4.43;;;14.80;99.90;;;;;;5064733;28;20051;-79
2023/03/17 11:57:02;;;;;;;6.03;4.03;;;14.70;99.90;;;;;;5090161;28;20069;-81
2023/03/17 11:59:56;;;;;;;9.63;4.72;;;13.20;99.90;;;;;;5090706;28;20047;-80
2023/03/17 12:02:37;;;;;;;8.65;4.40;;;15.00;99.90;;;;;;5082878;28;20044;-79
2023/03/17 12:05:09;;;;;;;5.82;4.63;;;15.00;99.90;;;;;;5073417;28;20648;-79
2023/03/17 12:07:47;;;;;;;8.10;4.30;;;15.10;99.90;;;;;;5090618;28;20048;-79
2023/03/17 12:10:40;;;;;;;7.95;4.72;;;15.20;99.90;;;;;;5081159;28;20047;-79
2023/03/17 12:13:13;;;;;;;8.60;5.32;;;15.30;99.90;;;;;;5090171;28;20047;-82
2023/03/17 12:15:44;;;;;;;6.70;4.75;;;15.40;99.90;;;;;;5089728;28;20542;-80
2023/03/17 12:18:31;;;;;;;8.63;4.90;;;15.50;99.90;;;;;;5073663;28;20043;-79
2023/03/17 12:21:03;;;;;;;7.88;4.90;;;15.70;99.90;;;;;;5108655;28;20040;-80
2023/03/17 12:23:48;;;;;;;7.88;4.32;;;15.80;99.90;;;;;;5073028;28;20050;-79
2023/03/17 12:26:22;;;;;;;5.28;4.30;;;15.90;99.90;;;;;;5065272;28;20044;-79
2023/03/17 12:28:51;;;;;;;;;;;16.20;99.90;;;;;;5074352;28;20043;-80
2023/03/17 12:31:23;;;;;;;11.10;4.85;;;15.90;99.90;;;;;;5106521;28;19959;-79
2023/03/17 12:34:03;;;;;;;6.95;4.80;;;15.80;99.90;;;;;;5073255;28;20043;-80
2023/03/17 12:36:40;;;;;;;9.90;4.57;;;15.90;99.90;;;;;;5090063;28;20051;-79
2023/03/17 12:39:12;;;;;;;9.30;5.57;;;18.10;99.90;;;;;;5090000;28;20040;-80
2023/03/17 12:42:00;;;;;;;8.32;4.82;;;15.70;99.90;;;;;;5090416;28;20050;-80
2023/03/17 12:44:44;;;;;;;9.05;5.18;;;16.00;99.90;;;;;;5066016;28;20052;-80
2023/03/17 12:47:26;;;;;;;5.07;4.57;;;15.60;99.90;;;;;;5089907;28;20122;-81
2023/03/17 12:50:18;;;;;;;5.53;4.90;;;15.60;99.90;;;;;;5090525;28;20093;-80
2023/03/17 12:53:18;;;;;;;6.53;4.82;;;15.60;99.90;;;;;;5107800;28;20160;-79
2023/03/17 12:55:48;;;;;;;5.80;4.72;;;15.70;99.90;;;;;;5068772;28;20513;-79
2023/03/17 12:58:42;;;;;;;6.28;4.22;;;15.90;99.90;;;;;;5063987;28;20071;-79
2023/03/17 13:01:37;;;;;;;10.50;4.43;;;15.90;99.90;;;;;;5089480;28;20519;-79
2023/03/17 13:04:28;;;;;;;5.18;4.22;;;15.90;99.90;;;;;;5035945;28;20050;-79
2023/03/17 13:07:34;;;;;;;9.73;5.88;;;15.70;99.90;;;;;;5063646;28;20050;-79
2023/03/17 13:10:00;;;;;;;7.47;5.32;;;15.70;99.90;;;;;;5075517;28;20131;-79
2023/03/17 13:13:02;;;;;;;6.60;5.25;;;15.60;99.90;;;;;;5075917;28;20080;-79
2023/03/17 13:15:35;;;;;;;13.60;5.00;;;15.40;99.90;;;;;;5105316;28;20040;-84